METAR Data
IDs: Format: Raw Decoded Include TAF

Data at: 2017 UTC 26 Sep 2021

METAR for:KJYO (Leesburg/Executive A, VA, US)
Text:KJYO 262015Z AUTO 31008G17KT 10SM CLR 23/09 A3000 RMK AO2
Temperature: 23.0°C ( 73°F)
Dewpoint: 9.0°C ( 48°F) [RH = 41%]
Pressure (altimeter):30.00 inches Hg (1016.0 mb)
Winds:from the NW (310 degrees) at 9 MPH (8 knots; 4.1 m/s) gusting to 20 MPH (17 knots; 8.7 m/s)
Visibility:10 or more sm (16+ km)
Ceiling:at least 12,000 feet AGL
Clouds:sky clear below 12,000 feet AGL
QC Flag:automated observation with no human augmentation

TAF for:KJYO (Leesburg/Executive A, VA, US)
Text:No data found